Time;durP1;ratioP1;P1;durP2;ratioP2;P2;SDS_P1;SDS_P2;PMS_P1;PMS_P2;Temp;Humidity;BMP_temperature;BMP_pressure;BME280_temperature;BME280_humidity;BME280_pressure;Samples;Min_cycle;Max_cycle;Signal;HPM_P1;HPM_P2
2022/10/08 00:01:17;;;;;;;12.37;3.47;;;13.10;99.90;;;;;;5045886;28;20853;-76
2022/10/08 00:03:46;;;;;;;9.75;3.42;;;;;;;;;;5070889;28;20472;-76
2022/10/08 00:06:17;;;;;;;12.80;4.32;;;;;;;;;;5053288;28;20597;-76
2022/10/08 00:08:48;;;;;;;12.05;3.92;;;12.90;99.90;;;;;;5069878;28;20562;-76
2022/10/08 00:11:15;;;;;;;10.15;4.03;;;;;;;;;;5069816;28;20436;-75
2022/10/08 00:13:42;;;;;;;11.65;4.57;;;;;;;;;;5053655;28;20462;-75
2022/10/08 00:16:11;;;;;;;11.60;4.45;;;;;;;;;;5103352;28;20415;-75
2022/10/08 00:18:38;;;;;;;11.50;4.03;;;;;;;;;;5070788;28;20428;-75
2022/10/08 00:21:10;;;;;;;10.95;4.13;;;;;;;;;;5070583;28;20419;-75
2022/10/08 00:23:36;;;;;;;7.10;3.53;;;;;;;;;;5053622;28;20426;-76
2022/10/08 00:26:05;;;;;;;10.85;3.55;;;13.20;99.90;;;;;;5067703;28;20469;-75
2022/10/08 00:28:32;;;;;;;9.20;3.55;;;;;;;;;;5071139;28;20399;-74
2022/10/08 00:30:58;;;;;;;13.20;3.40;;;;;;;;;;5068479;28;20443;-75
2022/10/08 00:33:24;;;;;;;6.32;2.78;;;;;;;;;;5031745;28;20447;-75
2022/10/08 00:35:50;;;;;;;8.10;2.90;;;;;;;;;;5047420;28;20415;-75
2022/10/08 00:38:16;;;;;;;7.30;3.10;;;;;;;;;;5068894;28;20435;-75
2022/10/08 00:40:43;;;;;;;9.85;2.92;;;;;;;;;;5088196;28;20483;-75
2022/10/08 00:43:16;;;;;;;10.02;3.08;;;;;;;;;;5071777;28;20505;-75
2022/10/08 00:45:45;;;;;;;7.28;2.95;;;;;;;;;;5073772;28;20417;-75
2022/10/08 00:48:24;;;;;;;8.45;2.80;;;;;;;;;;5088938;28;20421;-75
2022/10/08 00:50:51;;;;;;;9.05;2.88;;;;;;;;;;5074304;28;20451;-75
2022/10/08 00:53:17;;;;;;;8.18;2.63;;;;;;;;;;5072962;28;20429;-76
2022/10/08 00:55:43;;;;;;;7.65;2.78;;;;;;;;;;5106476;28;20434;-76
2022/10/08 00:58:15;;;;;;;7.57;2.47;;;12.90;99.90;;;;;;5073818;28;20484;-76
2022/10/08 01:00:43;;;;;;;7.57;2.40;;;;;;;;;;5071393;28;20917;-76
2022/10/08 01:03:09;;;;;;;8.43;2.45;;;;;;;;;;5087851;28;20423;-76
2022/10/08 01:05:38;;;;;;;7.30;2.28;;;;;;;;;;5073118;28;20937;-76
2022/10/08 01:08:15;;;;;;;8.65;2.63;;;;;;;;;;5089447;28;20512;-77
2022/10/08 01:10:41;;;;;;;8.75;2.55;;;;;;;;;;5074056;28;20397;-77
2022/10/08 01:13:26;;;;;;;9.60;2.78;;;;;;;;;;5071679;28;20410;-76
2022/10/08 01:15:55;;;;;;;9.95;2.92;;;;;;;;;;5073994;28;20429;-76
2022/10/08 01:18:33;;;;;;;9.27;2.90;;;;;;;;;;5073548;28;20928;-76
2022/10/08 01:21:34;;;;;;;11.93;3.50;;;12.80;99.90;;;;;;5073192;28;20402;-77
2022/10/08 01:24:00;;;;;;;7.70;2.70;;;;;;;;;;5072880;28;20422;-77
2022/10/08 01:26:45;;;;;;;11.82;2.75;;;;;;;;;;5089827;28;20857;-77
2022/10/08 01:29:28;;;;;;;7.97;2.50;;;12.60;99.90;;;;;;5089574;28;20437;-77
2022/10/08 01:31:57;;;;;;;10.57;2.78;;;;;;;;;;5072639;28;20422;-77
2022/10/08 01:34:26;;;;;;;6.95;2.58;;;12.50;99.90;;;;;;5087159;28;20422;-77
2022/10/08 01:36:53;;;;;;;8.80;2.65;;;;;;;;;;5071604;28;20430;-77
2022/10/08 01:39:22;;;;;;;7.57;2.72;;;;;;;;;;5072233;28;20479;-77
2022/10/08 01:41:51;;;;;;;7.65;2.72;;;;;;;;;;5072906;28;20402;-77
2022/10/08 01:44:22;;;;;;;5.50;2.35;;;;;;;;;;5086469;28;20425;-77
2022/10/08 01:46:50;;;;;;;7.72;2.83;;;12.40;99.90;;;;;;5071898;28;20414;-78
2022/10/08 01:49:21;;;;;;;7.35;2.85;;;12.40;99.90;;;;;;5105293;28;20743;-78
2022/10/08 01:51:51;;;;;;;7.53;2.72;;;;;;;;;;5073162;28;20973;-78
2022/10/08 01:54:17;;;;;;;8.30;2.58;;;;;;;;;;5071309;28;20940;-79
2022/10/08 01:56:46;;;;;;;7.57;2.80;;;12.40;99.90;;;;;;5071888;28;20418;-79
2022/10/08 01:59:21;;;;;;;8.85;3.05;;;12.20;99.90;;;;;;5071529;28;20418;-79
2022/10/08 02:02:14;;;;;;;7.40;2.53;;;12.40;99.90;;;;;;5072444;28;20417;-79
2022/10/08 02:04:40;;;;;;;8.75;2.85;;;;;;;;;;5086676;28;20439;-79
2022/10/08 02:07:09;;;;;;;8.05;3.17;;;;;;;;;;5090354;28;20728;-79
2022/10/08 02:09:40;;;;;;;7.57;3.20;;;;;;;;;;5072135;28;20431;-79
2022/10/08 02:12:06;;;;;;;8.60;3.42;;;;;;;;;;5088866;28;20449;-79
2022/10/08 02:14:35;;;;;;;8.88;3.55;;;12.20;99.90;;;;;;5071096;28;20991;-79
2022/10/08 02:17:21;;;;;;;9.87;3.77;;;11.80;99.90;;;;;;5071000;28;20921;-79
2022/10/08 02:20:03;;;;;;;9.73;4.13;;;11.80;99.90;;;;;;5089354;28;20422;-79
2022/10/08 02:22:32;;;;;;;8.07;4.15;;;;;;;;;;5036580;28;20399;-79
2022/10/08 02:25:28;;;;;;;11.13;4.55;;;12.10;99.90;;;;;;5072178;28;20429;-79
2022/10/08 02:27:54;;;;;;;9.27;3.88;;;;;;;;;;5047570;28;20966;-79
2022/10/08 02:30:21;;;;;;;11.82;4.10;;;12.20;99.90;;;;;;5071090;28;20516;-79
2022/10/08 02:32:47;;;;;;;10.77;4.80;;;;;;;;;;5089334;28;20422;-79
2022/10/08 02:35:21;;;;;;;11.90;4.40;;;12.20;99.90;;;;;;5071835;28;20801;-79
2022/10/08 02:37:51;;;;;;;12.80;4.50;;;;;;;;;;5072218;28;20421;-79
2022/10/08 02:40:18;;;;;;;12.07;4.32;;;;;;;;;;5099763;28;20419;-79
2022/10/08 02:42:53;;;;;;;10.85;4.57;;;11.60;99.90;;;;;;5067496;28;20910;-79
2022/10/08 02:45:31;;;;;;;11.30;4.68;;;12.00;99.90;;;;;;5085630;28;20402;-79
2022/10/08 02:48:07;;;;;;;11.65;4.53;;;11.60;99.90;;;;;;5068907;28;20427;-79
2022/10/08 02:50:35;;;;;;;14.47;5.10;;;;;;;;;;5085576;28;20411;-79
2022/10/08 02:53:02;;;;;;;13.15;4.90;;;;;;;;;;5071130;28;20415;-79
2022/10/08 02:55:41;;;;;;;11.02;4.95;;;;;;;;;;5051315;28;20453;-78
2022/10/08 02:58:09;;;;;;;13.38;5.00;;;;;;;;;;5061448;28;20934;-78
2022/10/08 03:00:37;;;;;;;13.25;5.05;;;;;;;;;;5070725;28;20427;-78
2022/10/08 03:03:18;;;;;;;12.80;4.90;;;;;;;;;;5055994;28;20747;-78
2022/10/08 03:05:45;;;;;;;13.85;4.63;;;;;;;;;;5072615;28;20391;-78
2022/10/08 03:08:13;;;;;;;12.73;5.05;;;;;;;;;;5054717;28;20514;-78
2022/10/08 03:10:40;;;;;;;14.33;4.57;;;12.00;99.90;;;;;;5072177;28;20428;-78
2022/10/08 03:13:07;;;;;;;16.15;5.28;;;;;;;;;;5071861;28;20446;-78
2022/10/08 03:15:35;;;;;;;16.67;4.90;;;12.00;99.90;;;;;;5072497;28;20423;-78
2022/10/08 03:18:03;;;;;;;12.32;4.70;;;;;;;;;;5089389;28;20767;-78
2022/10/08 03:20:30;;;;;;;13.00;4.97;;;12.10;99.90;;;;;;5056166;28;20513;-78
2022/10/08 03:22:59;;;;;;;12.17;4.67;;;11.70;99.90;;;;;;5087665;28;20472;-78
2022/10/08 03:25:25;;;;;;;14.90;5.20;;;;;;;;;;5086664;28;20420;-78
2022/10/08 03:27:51;;;;;;;11.60;5.00;;;;;;;;;;5074682;28;20427;-78
2022/10/08 03:30:17;;;;;;;16.85;4.88;;;;;;;;;;5056589;28;20431;-79
2022/10/08 03:32:43;;;;;;;13.23;4.73;;;;;;;;;;5071831;28;21098;-79
2022/10/08 03:35:09;;;;;;;16.20;4.88;;;;;;;;;;5056020;28;20399;-78
2022/10/08 03:37:35;;;;;;;12.85;4.82;;;;;;;;;;5069395;28;20528;-78
2022/10/08 03:40:02;;;;;;;17.35;4.30;;;;;;;;;;5054889;28;20446;-78
2022/10/08 03:42:28;;;;;;;12.20;4.27;;;;;;;;;;5038277;28;20498;-78
2022/10/08 03:44:54;;;;;;;15.57;4.85;;;;;;;;;;5072634;28;20396;-78
2022/10/08 03:47:20;;;;;;;12.23;4.60;;;;;;;;;;5071072;28;20771;-78
2022/10/08 03:49:46;;;;;;;12.63;4.00;;;;;;;;;;5089559;28;20426;-78
2022/10/08 03:52:12;;;;;;;11.63;4.40;;;;;;;;;;5052824;28;20419;-78
2022/10/08 03:54:38;;;;;;;10.45;4.00;;;;;;;;;;5054319;28;20420;-78
2022/10/08 03:57:04;;;;;;;13.38;4.30;;;;;;;;;;5054961;28;20430;-78
2022/10/08 03:59:30;;;;;;;15.30;4.50;;;;;;;;;;5057778;28;20825;-78
2022/10/08 04:01:56;;;;;;;13.98;4.32;;;;;;;;;;5073722;28;20449;-78
2022/10/08 04:04:22;;;;;;;12.98;4.15;;;;;;;;;;5067590;28;20911;-78
2022/10/08 04:06:48;;;;;;;16.50;4.68;;;;;;;;;;5069426;28;20915;-79
2022/10/08 04:09:14;;;;;;;12.00;4.00;;;;;;;;;;5055172;28;20840;-79
2022/10/08 04:11:40;;;;;;;13.80;4.18;;;;;;;;;;5055694;28;20747;-78
2022/10/08 04:14:06;;;;;;;15.45;4.60;;;;;;;;;;5070390;28;20420;-78
2022/10/08 04:16:33;;;;;;;15.43;4.50;;;;;;;;;;5070928;28;20834;-78
2022/10/08 04:18:59;;;;;;;12.95;4.47;;;;;;;;;;5070916;28;20459;-78
2022/10/08 04:21:25;;;;;;;14.55;4.72;;;;;;;;;;5053018;28;20850;-77
2022/10/08 04:23:51;;;;;;;17.95;5.35;;;;;;;;;;5054369;28;20415;-78
2022/10/08 04:26:17;;;;;;;17.60;4.70;;;11.40;99.90;;;;;;5070486;28;20395;-77
2022/10/08 04:28:44;;;;;;;17.20;4.80;;;11.00;99.90;;;;;;5085856;28;20551;-78
2022/10/08 04:31:12;;;;;;;17.70;4.60;;;;;;;;;;5071646;28;20403;-78
2022/10/08 04:33:38;;;;;;;16.20;4.40;;;;;;;;;;5056159;28;20423;-78
2022/10/08 04:36:11;;;;;;;13.45;4.60;;;;;;;;;;5052477;28;20498;-78
2022/10/08 04:38:37;;;;;;;16.52;4.95;;;;;;;;;;5056780;28;20429;-78
2022/10/08 04:41:23;;;;;;;13.25;4.70;;;;;;;;;;5071710;28;20830;-78
2022/10/08 04:43:49;;;;;;;14.77;4.57;;;;;;;;;;5073842;28;20504;-78
2022/10/08 04:46:17;;;;;;;16.00;5.17;;;;;;;;;;5091433;28;20490;-78
2022/10/08 04:48:50;;;;;;;17.20;5.05;;;;;;;;;;5073727;28;20422;-78
2022/10/08 04:51:16;;;;;;;14.05;5.00;;;;;;;;;;5070559;28;20440;-78
2022/10/08 04:53:42;;;;;;;14.32;5.70;;;;;;;;;;5072723;28;20539;-78
2022/10/08 04:56:14;;;;;;;16.95;5.40;;;;;;;;;;5073553;28;20433;-78
2022/10/08 04:58:40;;;;;;;17.77;5.63;;;;;;;;;;5090380;28;20426;-78
2022/10/08 05:01:08;;;;;;;18.27;5.65;;;;;;;;;;5074241;28;20406;-78
2022/10/08 05:03:38;;;;;;;18.43;5.70;;;;;;;;;;5074195;28;20401;-78
2022/10/08 05:06:05;;;;;;;17.35;5.80;;;;;;;;;;5102716;27;20417;-78
2022/10/08 05:08:31;;;;;;;17.48;5.60;;;;;;;;;;5070155;28;20414;-78
2022/10/08 05:10:57;;;;;;;18.38;5.85;;;;;;;;;;5071795;28;20417;-78
2022/10/08 05:13:23;;;;;;;12.98;5.03;;;;;;;;;;5073471;28;20762;-79
2022/10/08 05:15:49;;;;;;;13.73;5.27;;;;;;;;;;5089073;28;20461;-79
2022/10/08 05:18:15;;;;;;;14.75;5.22;;;;;;;;;;5072554;28;20468;-78
2022/10/08 05:20:41;;;;;;;18.27;5.03;;;;;;;;;;5085619;28;20512;-78
2022/10/08 05:23:07;;;;;;;20.27;5.20;;;;;;;;;;5085813;28;20414;-78
2022/10/08 05:25:34;;;;;;;17.73;5.28;;;;;;;;;;5035625;28;20416;-78
2022/10/08 05:28:01;;;;;;;15.23;4.40;;;;;;;;;;5086260;28;20395;-78
2022/10/08 05:30:27;;;;;;;18.20;5.05;;;;;;;;;;5065650;28;20562;-78
2022/10/08 05:32:53;;;;;;;14.68;4.30;;;;;;;;;;5090351;28;20916;-79
2022/10/08 05:35:19;;;;;;;17.33;4.85;;;;;;;;;;5055486;28;20448;-78
2022/10/08 05:37:45;;;;;;;12.57;4.30;;;;;;;;;;5073757;28;20420;-78
2022/10/08 05:40:11;;;;;;;15.40;4.90;;;;;;;;;;5071599;28;20937;-78
2022/10/08 05:42:37;;;;;;;17.25;4.22;;;;;;;;;;5105899;28;20436;-79
2022/10/08 05:45:05;;;;;;;15.90;4.35;;;;;;;;;;5072248;28;20406;-80
2022/10/08 05:47:31;;;;;;;14.88;4.10;;;;;;;;;;5086950;28;20479;-80
2022/10/08 05:49:57;;;;;;;16.67;4.07;;;;;;;;;;5054270;28;20403;-80
2022/10/08 05:52:25;;;;;;;13.48;3.70;;;;;;;;;;5039078;28;20471;-80
2022/10/08 05:54:51;;;;;;;16.90;4.10;;;;;;;;;;5090607;28;20494;-80
2022/10/08 05:57:18;;;;;;;21.27;4.18;;;;;;;;;;5089136;28;20902;-81
2022/10/08 05:59:44;;;;;;;16.98;3.88;;;;;;;;;;5069629;28;20422;-81
2022/10/08 06:02:10;;;;;;;12.48;3.53;;;10.40;99.90;;;;;;5087457;28;20422;-81
2022/10/08 06:04:36;;;;;;;18.77;3.42;;;;;;;;;;5054898;28;20629;-82
2022/10/08 06:07:02;;;;;;;17.50;3.92;;;;;;;;;;5070863;28;20421;-82
2022/10/08 06:09:28;;;;;;;17.38;3.55;;;;;;;;;;5073480;28;20398;-81
2022/10/08 06:11:54;;;;;;;16.08;3.10;;;;;;;;;;5082208;28;20520;-81
2022/10/08 06:14:20;;;;;;;17.00;3.80;;;;;;;;;;5071815;28;20421;-82
2022/10/08 06:16:46;;;;;;;15.30;3.45;;;;;;;;;;5038338;28;20479;-81
2022/10/08 06:19:12;;;;;;;19.10;4.05;;;;;;;;;;5073670;28;20922;-82
2022/10/08 06:21:38;;;;;;;16.53;4.00;;;;;;;;;;5089066;28;20792;-82
2022/10/08 06:24:07;;;;;;;15.80;4.20;;;10.50;99.90;;;;;;5073763;28;20438;-82
2022/10/08 06:26:34;;;;;;;18.90;5.75;;;;;;;;;;5082266;28;20919;-82
2022/10/08 06:29:01;;;;;;;13.57;4.07;;;;;;;;;;5101273;28;20532;-82
2022/10/08 06:31:27;;;;;;;14.50;4.65;;;;;;;;;;5092141;28;20928;-83
2022/10/08 06:33:56;;;;;;;19.88;6.55;;;;;;;;;;5091826;28;20444;-82
2022/10/08 06:36:25;;;;;;;15.60;3.95;;;11.10;99.90;;;;;;5076890;28;20410;-82
2022/10/08 06:38:56;;;;;;;20.25;3.90;;;;;;;;;;5071155;28;20424;-82
2022/10/08 06:41:22;;;;;;;16.13;3.45;;;;;;;;;;5086148;28;20927;-82
2022/10/08 06:43:49;;;;;;;15.40;3.55;;;;;;;;;;5071290;28;20489;-82
2022/10/08 06:46:15;;;;;;;17.23;4.03;;;;;;;;;;5072440;28;20423;-82
2022/10/08 06:48:41;;;;;;;14.87;3.20;;;;;;;;;;5071601;28;20881;-82
2022/10/08 06:51:12;;;;;;;24.73;4.53;;;11.60;99.90;;;;;;5072053;28;20403;-81
2022/10/08 06:53:39;;;;;;;12.25;2.85;;;;;;;;;;5088204;28;20424;-82
2022/10/08 06:56:09;;;;;;;13.30;3.13;;;11.40;99.90;;;;;;5056800;28;20415;-82
2022/10/08 06:58:35;;;;;;;14.47;3.37;;;;;;;;;;5073602;28;20507;-83
2022/10/08 07:01:08;;;;;;;14.80;3.30;;;11.30;99.90;;;;;;5037035;28;20483;-82
2022/10/08 07:03:35;;;;;;;14.90;3.28;;;;;;;;;;5071689;28;20965;-82
2022/10/08 07:06:06;;;;;;;13.98;3.72;;;;;;;;;;5036890;28;20419;-82
2022/10/08 07:08:32;;;;;;;14.48;3.28;;;;;;;;;;5072135;28;20426;-81
2022/10/08 07:11:06;;;;;;;17.05;3.85;;;11.30;99.90;;;;;;5072115;28;20430;-82
2022/10/08 07:13:32;;;;;;;20.65;4.15;;;;;;;;;;5089829;28;20483;-82
2022/10/08 07:16:10;;;;;;;16.42;3.63;;;11.50;99.90;;;;;;5067909;28;20438;-81
2022/10/08 07:18:37;;;;;;;15.73;3.80;;;;;;;;;;5102423;28;20416;-80
2022/10/08 07:21:03;;;;;;;13.13;3.92;;;12.00;99.90;;;;;;5072994;28;20407;-81
2022/10/08 07:23:30;;;;;;;15.38;3.70;;;;;;;;;;5072671;28;20900;-80
2022/10/08 07:26:16;;;;;;;15.83;3.10;;;12.00;99.90;;;;;;5104865;28;20516;-80
2022/10/08 07:28:43;;;;;;;14.95;3.22;;;;;;;;;;5069542;28;20545;-80
2022/10/08 07:31:14;;;;;;;14.23;3.47;;;;;;;;;;5056694;28;20439;-80
2022/10/08 07:33:41;;;;;;;15.02;3.55;;;;;;;;;;5068958;28;20431;-80
2022/10/08 07:36:07;;;;;;;12.85;2.88;;;;;;;;;;5072846;28;20410;-80
2022/10/08 07:38:33;;;;;;;12.52;3.08;;;;;;;;;;5072101;28;20400;-80
2022/10/08 07:40:59;;;;;;;11.23;2.80;;;;;;;;;;5052022;28;20427;-80
2022/10/08 07:43:25;;;;;;;13.10;2.63;;;;;;;;;;5070805;28;20859;-80
2022/10/08 07:45:51;;;;;;;13.20;3.13;;;;;;;;;;5040703;28;20457;-80
2022/10/08 07:48:19;;;;;;;13.30;3.00;;;;;;;;;;5101019;28;20463;-81
2022/10/08 07:50:45;;;;;;;15.48;3.15;;;;;;;;;;5068796;28;20419;-80
2022/10/08 07:53:12;;;;;;;14.10;2.83;;;;;;;;;;5054764;28;20419;-80
2022/10/08 07:55:38;;;;;;;9.82;2.38;;;;;;;;;;5069067;28;20804;-81
2022/10/08 07:58:05;;;;;;;14.82;2.80;;;;;;;;;;5070472;28;20419;-80
2022/10/08 08:00:31;;;;;;;10.13;2.33;;;;;;;;;;5047459;28;20437;-81
2022/10/08 08:02:57;;;;;;;11.70;2.40;;;;;;;;;;5068216;28;20416;-80
2022/10/08 08:05:23;;;;;;;10.52;2.58;;;;;;;;;;5069242;28;20423;-80
2022/10/08 08:07:49;;;;;;;8.10;2.10;;;13.50;99.90;;;;;;5066218;28;21061;-80
2022/10/08 08:10:15;;;;;;;12.47;2.47;;;;;;;;;;5070226;28;20449;-80
2022/10/08 08:12:41;;;;;;;10.25;2.20;;;;;;;;;;5068677;28;20495;-79
2022/10/08 08:15:07;;;;;;;10.80;2.10;;;13.70;99.90;;;;;;5066041;28;20434;-80
2022/10/08 08:17:34;;;;;;;11.13;2.10;;;;;;;;;;5049575;28;20439;-81
2022/10/08 08:20:00;;;;;;;7.07;1.75;;;13.80;99.90;;;;;;5065467;28;20477;-80
2022/10/08 08:22:26;;;;;;;10.48;2.28;;;;;;;;;;5065800;28;20419;-81
2022/10/08 08:24:52;;;;;;;8.82;1.90;;;;;;;;;;5068719;28;20431;-80
2022/10/08 08:27:18;;;;;;;11.32;2.10;;;;;;;;;;5068680;28;20504;-80
2022/10/08 08:29:44;;;;;;;7.55;2.17;;;;;;;;;;5067114;28;20488;-80
2022/10/08 08:32:10;;;;;;;8.38;1.75;;;;;;;;;;5068176;28;20528;-81
2022/10/08 08:34:37;;;;;;;10.00;1.90;;;;;;;;;;5051562;28;20431;-81
2022/10/08 08:37:03;;;;;;;7.35;1.73;;;;;;;;;;5069634;28;20427;-81
2022/10/08 08:39:30;;;;;;;10.60;2.00;;;;;;;;;;5066787;28;20761;-80
2022/10/08 08:42:20;;;;;;;8.40;1.90;;;;;;;;;;5068623;28;20434;-81
2022/10/08 08:44:47;;;;;;;9.90;1.92;;;;;;;;;;5044839;28;20426;-82
2022/10/08 08:47:19;;;;;;;10.32;1.67;;;14.40;99.90;;;;;;5068402;28;20424;-81
2022/10/08 08:49:46;;;;;;;9.80;1.90;;;;;;;;;;5066969;28;20423;-79
2022/10/08 08:52:14;;;;;;;10.45;1.95;;;;;;;;;;5066589;28;20911;-79
2022/10/08 08:54:40;;;;;;;7.28;1.38;;;14.40;99.90;;;;;;5052925;28;20438;-79
2022/10/08 08:57:15;;;;;;;7.72;1.73;;;;;;;;;;5028281;28;20423;-79
2022/10/08 08:59:44;;;;;;;10.10;1.88;;;;;;;;;;5052306;28;20431;-80
2022/10/08 09:02:27;;;;;;;8.52;1.88;;;14.80;99.90;;;;;;5051705;28;20419;-80
2022/10/08 09:04:56;;;;;;;7.13;2.00;;;;;;;;;;5064089;28;20478;-80
2022/10/08 09:07:24;;;;;;;9.85;1.70;;;;;;;;;;5066725;28;20519;-79
2022/10/08 09:09:52;;;;;;;9.50;1.60;;;;;;;;;;5052771;28;21037;-79
2022/10/08 09:12:23;;;;;;;10.13;1.80;;;;;;;;;;5059186;28;20427;-78
2022/10/08 09:14:50;;;;;;;5.75;1.40;;;;;;;;;;5065312;28;20556;-80
2022/10/08 09:17:18;;;;;;;6.95;1.27;;;;;;;;;;5061859;28;20423;-80
2022/10/08 09:19:45;;;;;;;8.13;1.60;;;;;;;;;;5068816;28;20420;-79
2022/10/08 09:22:22;;;;;;;6.85;1.45;;;;;;;;;;5052752;28;20399;-79
2022/10/08 09:24:53;;;;;;;11.23;1.63;;;14.80;99.90;;;;;;5059970;28;20433;-79
2022/10/08 09:27:19;;;;;;;9.90;1.52;;;;;;;;;;5068115;28;20439;-79
2022/10/08 09:29:46;;;;;;;6.38;1.48;;;;;;;;;;5052547;28;20447;-79
2022/10/08 09:32:17;;;;;;;6.60;1.50;;;14.90;99.90;;;;;;5070002;28;20428;-79
2022/10/08 09:34:44;;;;;;;7.93;1.67;;;;;;;;;;5067812;28;20911;-77
2022/10/08 09:37:24;;;;;;;6.60;1.33;;;14.90;99.90;;;;;;5065928;28;20425;-77
2022/10/08 09:40:09;;;;;;;7.72;1.60;;;;;;;;;;5100347;28;20474;-77
2022/10/08 09:42:35;;;;;;;9.43;1.65;;;15.20;99.90;;;;;;5104685;28;20425;-78
2022/10/08 09:45:02;;;;;;;8.00;1.85;;;;;;;;;;5047335;28;20495;-78
2022/10/08 09:47:32;;;;;;;8.02;1.90;;;;;;;;;;5087366;28;20536;-78
2022/10/08 09:50:01;;;;;;;8.55;1.65;;;;;;;;;;5089961;28;20424;-78
2022/10/08 09:52:27;;;;;;;9.38;1.80;;;15.60;99.90;;;;;;5068198;28;20440;-77
2022/10/08 09:55:09;;;;;;;8.88;1.90;;;15.40;99.90;;;;;;5068283;28;20437;-76
2022/10/08 09:57:41;;;;;;;8.73;1.70;;;;;;;;;;5054858;28;20418;-76
2022/10/08 10:00:25;;;;;;;7.33;1.60;;;15.60;99.90;;;;;;5087968;28;20422;-77
2022/10/08 10:02:55;;;;;;;8.88;2.22;;;;;;;;;;5056128;28;20438;-77
2022/10/08 10:05:23;;;;;;;10.25;2.03;;;;;;;;;;5069726;28;20422;-78
2022/10/08 10:07:49;;;;;;;7.67;1.60;;;;;;;;;;5069460;28;20477;-78
2022/10/08 10:10:22;;;;;;;8.52;1.77;;;;;;;;;;5067203;28;20428;-78
2022/10/08 10:12:51;;;;;;;6.43;1.77;;;;;;;;;;5069354;28;20945;-77
2022/10/08 10:15:33;;;;;;;6.63;1.55;;;15.90;99.90;;;;;;5069247;28;20424;-78
2022/10/08 10:18:02;;;;;;;6.75;1.50;;;;;;;;;;5066449;28;20476;-78
2022/10/08 10:20:46;;;;;;;7.85;1.52;;;;;;;;;;5067859;28;20422;-72
2022/10/08 10:23:33;;;;;;;6.72;1.35;;;15.70;99.90;;;;;;5053517;28;20420;-72
2022/10/08 10:26:08;;;;;;;8.00;1.63;;;15.60;99.90;;;;;;5085045;28;20414;-73
2022/10/08 10:28:34;;;;;;;8.18;1.70;;;;;;;;;;5080307;28;20410;-72
2022/10/08 10:31:07;;;;;;;7.78;1.60;;;15.70;99.90;;;;;;5105851;28;20420;-72
2022/10/08 10:33:41;;;;;;;7.20;1.47;;;15.50;99.90;;;;;;5063080;28;20411;-72
2022/10/08 10:36:10;;;;;;;7.85;1.42;;;;;;;;;;5088140;28;20563;-71
2022/10/08 10:38:39;;;;;;;8.63;1.70;;;;;;;;;;5071492;28;20500;-71
2022/10/08 10:41:11;;;;;;;7.82;1.90;;;;;;;;;;5100809;28;20475;-72
2022/10/08 10:43:42;;;;;;;6.50;1.33;;;16.20;99.90;;;;;;5049730;28;20505;-72
2022/10/08 10:46:08;;;;;;;8.23;1.30;;;;;;;;;;5066476;28;21022;-72
2022/10/08 10:48:34;;;;;;;7.90;1.45;;;16.20;99.90;;;;;;5050049;28;20506;-72
2022/10/08 10:51:13;;;;;;;5.07;1.45;;;16.20;99.90;;;;;;5047266;28;20514;-72
2022/10/08 10:53:45;;;;;;;6.88;1.58;;;;;;;;;;5061853;28;20416;-72
2022/10/08 10:56:19;;;;;;;8.32;2.00;;;16.10;99.90;;;;;;5061263;28;20423;-72
2022/10/08 10:59:18;;;;;;;7.68;1.60;;;16.10;99.90;;;;;;5061328;28;20938;-72
2022/10/08 11:01:53;;;;;;;7.70;1.60;;;;;;;;;;5057618;28;20416;-72
2022/10/08 11:04:51;;;;;;;6.82;1.50;;;16.30;99.90;;;;;;5060533;28;20442;-72
2022/10/08 11:07:22;;;;;;;8.40;1.40;;;;;;;;;;5020995;28;20420;-72
2022/10/08 11:09:54;;;;;;;11.25;2.17;;;;;;;;;;5040375;28;20419;-72
2022/10/08 11:12:37;;;;;;;9.15;2.42;;;16.40;99.90;;;;;;5068858;28;20740;-72
2022/10/08 11:15:06;;;;;;;13.38;2.00;;;15.90;99.90;;;;;;5068874;28;20485;-72
2022/10/08 11:17:48;;;;;;;7.90;1.65;;;;;;;;;;5054419;28;20431;-72
2022/10/08 11:21:09;;;;;;;7.63;1.73;;;15.70;99.90;;;;;;5070750;28;20443;-72
2022/10/08 11:23:41;;;;;;;9.68;1.60;;;;;;;;;;4974772;28;20465;-72
2022/10/08 11:26:27;;;;;;;7.93;1.67;;;15.70;99.90;;;;;;5054762;28;20412;-72
2022/10/08 11:28:59;;;;;;;8.30;1.98;;;;;;;;;;5066531;28;20435;-72
2022/10/08 11:31:40;;;;;;;8.60;1.70;;;;;;;;;;5072617;28;20791;-72
2022/10/08 11:34:15;;;;;;;10.85;1.85;;;;;;;;;;5070254;28;20427;-72
2022/10/08 11:36:46;;;;;;;8.88;1.63;;;;;;;;;;5071706;28;20419;-72
2022/10/08 11:39:27;;;;;;;8.07;1.80;;;;;;;;;;5104420;28;20483;-72
2022/10/08 11:42:18;;;;;;;7.20;1.43;;;16.70;99.90;;;;;;5070354;28;20428;-72
2022/10/08 11:44:44;;;;;;;5.22;1.50;;;;;;;;;;5066741;28;20454;-72
2022/10/08 11:47:41;;;;;;;6.93;1.52;;;17.10;99.90;;;;;;5060481;28;20415;-72
2022/10/08 11:50:24;;;;;;;8.85;2.10;;;17.30;99.90;;;;;;5067753;28;20414;-72
2022/10/08 11:52:52;;;;;;;8.25;1.98;;;17.30;99.90;;;;;;5069856;28;20416;-72
2022/10/08 11:55:38;;;;;;;8.40;1.70;;;17.20;99.90;;;;;;5066811;28;20455;-72
2022/10/08 11:58:05;;;;;;;7.55;1.42;;;;;;;;;;5067573;28;20451;-71
2022/10/08 12:00:40;;;;;;;8.32;1.98;;;17.10;99.90;;;;;;5069428;28;20457;-72
2022/10/08 12:03:29;;;;;;;9.85;1.90;;;17.20;99.90;;;;;;5068851;28;20488;-71
2022/10/08 12:06:16;;;;;;;7.35;1.80;;;17.10;99.90;;;;;;5065589;28;20416;-72
2022/10/08 12:08:49;;;;;;;9.88;2.25;;;;;;;;;;5043540;28;20423;-72
2022/10/08 12:11:38;;;;;;;8.55;1.60;;;17.40;99.90;;;;;;5066512;28;20453;-72
2022/10/08 12:14:10;;;;;;;7.93;1.45;;;17.30;99.90;;;;;;5065509;28;20947;-72
2022/10/08 12:16:57;;;;;;;6.15;1.40;;;17.30;99.90;;;;;;5046681;28;20440;-72
2022/10/08 12:19:35;;;;;;;7.18;1.75;;;17.40;99.90;;;;;;5040541;28;20945;-72
2022/10/08 12:22:16;;;;;;;7.03;1.70;;;;;;;;;;5067059;28;20508;-72
2022/10/08 12:24:48;;;;;;;11.80;2.13;;;17.40;99.90;;;;;;5062003;28;20420;-72
2022/10/08 12:27:16;;;;;;;6.72;1.70;;;17.50;99.90;;;;;;5052633;28;20438;-72
2022/10/08 12:29:59;;;;;;;8.80;1.75;;;17.80;99.90;;;;;;5065670;28;20432;-72
2022/10/08 12:32:29;;;;;;;7.88;1.67;;;17.80;99.90;;;;;;5068195;28;20763;-72
2022/10/08 12:34:55;;;;;;;6.38;1.60;;;18.10;99.90;;;;;;5068293;28;20816;-72
2022/10/08 12:37:36;;;;;;;7.88;1.65;;;17.70;99.90;;;;;;5103455;28;20424;-72
2022/10/08 12:40:16;;;;;;;6.32;1.50;;;17.60;99.90;;;;;;5085192;28;20440;-71
2022/10/08 12:42:42;;;;;;;8.65;1.60;;;17.90;99.90;;;;;;5052228;28;20758;-72
2022/10/08 12:45:24;;;;;;;6.55;1.60;;;17.70;99.90;;;;;;5072591;28;20426;-72
2022/10/08 12:48:03;;;;;;;7.25;1.48;;;17.90;99.90;;;;;;5058212;28;20410;-72
2022/10/08 12:51:05;;;;;;;8.10;1.77;;;17.90;99.90;;;;;;5074409;28;20406;-72
2022/10/08 12:53:32;;;;;;;7.93;1.67;;;;;;;;;;5053278;28;20404;-72
2022/10/08 12:55:58;;;;;;;4.75;1.35;;;17.40;99.90;;;;;;5052519;28;20466;-73
2022/10/08 12:58:32;;;;;;;6.50;1.70;;;17.30;99.90;;;;;;5073682;28;20491;-72
2022/10/08 13:01:02;;;;;;;4.15;1.13;;;;;;;;;;5107777;28;20418;-72
2022/10/08 13:03:28;;;;;;;4.35;1.00;;;;;;;;;;5073960;28;20405;-73
2022/10/08 13:05:55;;;;;;;4.45;1.00;;;;;;;;;;5057250;28;20771;-74
2022/10/08 13:08:26;;;;;;;3.47;1.08;;;15.50;99.90;;;;;;5058006;28;20402;-72
2022/10/08 13:10:52;;;;;;;6.07;1.50;;;;;;;;;;5056738;28;20437;-72
2022/10/08 13:13:37;;;;;;;5.18;1.30;;;15.20;99.90;;;;;;5090977;28;20533;-72
2022/10/08 13:16:06;;;;;;;10.38;1.42;;;15.20;99.90;;;;;;5057267;28;20508;-72
2022/10/08 13:18:34;;;;;;;5.90;1.70;;;15.00;99.90;;;;;;5071617;28;20902;-72
2022/10/08 13:21:06;;;;;;;6.13;1.60;;;15.00;99.90;;;;;;5070021;28;20789;-72
2022/10/08 13:23:41;;;;;;;7.25;1.35;;;;;;;;;;5055504;28;20426;-73
2022/10/08 13:26:26;;;;;;;6.93;1.27;;;;;;;;;;5070304;28;20937;-72
2022/10/08 13:29:17;;;;;;;5.40;1.60;;;15.10;99.90;;;;;;5087748;28;20826;-72
2022/10/08 13:31:56;;;;;;;9.35;2.17;;;14.70;99.90;;;;;;5073578;28;20395;-72
2022/10/08 13:34:23;;;;;;;8.68;2.00;;;;;;;;;;5091738;28;20410;-73
2022/10/08 13:36:53;;;;;;;8.30;1.60;;;;;;;;;;5059611;28;20427;-73
2022/10/08 13:39:24;;;;;;;7.30;1.92;;;;;;;;;;5061446;28;20422;-73
2022/10/08 13:41:51;;;;;;;6.55;1.60;;;;;;;;;;5063672;28;20419;-72
2022/10/08 13:44:17;;;;;;;7.37;1.80;;;;;;;;;;5071017;28;20410;-72
2022/10/08 13:46:43;;;;;;;7.53;1.85;;;;;;;;;;5104385;28;20432;-73
2022/10/08 13:49:36;;;;;;;6.53;1.80;;;;;;;;;;5088258;28;20428;-72
2022/10/08 13:52:02;;;;;;;8.18;1.95;;;;;;;;;;5063041;28;20436;-73
2022/10/08 13:54:30;;;;;;;8.10;1.95;;;15.20;99.90;;;;;;5070572;28;20767;-72
2022/10/08 13:56:56;;;;;;;10.75;2.00;;;;;;;;;;5065497;28;20423;-78
2022/10/08 13:59:22;;;;;;;6.47;1.57;;;;;;;;;;5094664;28;20418;-79
2022/10/08 14:01:48;;;;;;;8.70;2.05;;;;;;;;;;5070340;28;20674;-79
2022/10/08 14:04:15;;;;;;;8.85;1.70;;;;;;;;;;5088024;28;20430;-79
2022/10/08 14:06:42;;;;;;;7.68;1.90;;;;;;;;;;5043863;28;20426;-80
2022/10/08 14:09:15;;;;;;;7.13;1.48;;;15.40;99.90;;;;;;5072584;28;20421;-80
2022/10/08 14:11:42;;;;;;;8.52;1.77;;;;;;;;;;5053701;28;20906;-79
2022/10/08 14:14:14;;;;;;;8.30;1.50;;;;;;;;;;5087950;28;20425;-79
2022/10/08 14:16:43;;;;;;;6.32;1.50;;;;;;;;;;5067183;28;20422;-79
2022/10/08 14:19:10;;;;;;;8.95;2.10;;;;;;;;;;5088428;28;20418;-78